This is the latest recevied weather packets stored in our database for station/object KJ5BMY-13. If no packets are shown the sender has not sent any weather packets the latest 10 day(s).
| Time | Temp. | Humidity | Pressure | Rain* | Wind** | Luminosity | Snow |
|---|---|---|---|---|---|---|---|
| 1777728500 | 15.56° C | 67% | 1023.5 hPa | 0 mm | - | - | - |
| 1777728197 | 13.33° C | 78% | 1023.8 hPa | 0 mm | - | - | - |
| 1777727894 | 11.67° C | 92% | 1023.6 hPa | 0 mm | - | - | - |
| 1777727591 | 11.11° C | 95% | 1023.5 hPa | 0 mm | - | - | - |
| 1777727288 | 11.11° C | 96% | 1023.5 hPa | 0 mm | - | - | - |
| 1777726380 | 10.56° C | 96% | 1023.3 hPa | 0 mm | - | - | - |
| 1777725471 | 9.44° C | 96% | 1022.9 hPa | 0 mm | - | - | - |
| 1777724865 | 8.33° C | 96% | 1022.8 hPa | 0 mm | - | - | - |
| 1777724561 | 8.33° C | 95% | 1022.7 hPa | 0 mm | - | - | - |
| 1777724260 | 8.89° C | 95% | 1022.6 hPa | 0 mm | - | - | - |
| 1777723957 | 8.89° C | 95% | 1022.5 hPa | 0 mm | - | - | - |
| 1777723653 | 8.33° C | 95% | 1022.3 hPa | 0 mm | - | - | - |
| 1777723350 | 8.33° C | 95% | 1022.3 hPa | 0 mm | - | - | - |
| 1777722745 | 8.33° C | 95% | 1022.2 hPa | 0 mm | - | - | - |
| 1777722440 | 8.89° C | 95% | 1022.1 hPa | 0 mm | - | - | - |
| 1777722138 | 8.89° C | 95% | 1022 hPa | 0 mm | - | - | - |
| 1777721835 | 8.89° C | 95% | 1021.9 hPa | 0 mm | - | - | - |
| 1777721533 | 8.89° C | 95% | 1022.1 hPa | 0 mm | - | - | - |
| 1777721231 | 9.44° C | 95% | 1021.9 hPa | 0 mm | - | - | - |
| 1777720928 | 9.44° C | 95% | 1021.8 hPa | 0 mm | - | - | - |
| 1777720625 | 9.44° C | 95% | 1021.7 hPa | 0 mm | - | - | - |
| 1777720322 | 10° C | 95% | 1021.7 hPa | 0 mm | - | - | - |
| 1777720020 | 9.44° C | 94% | 1021.7 hPa | 0 mm | - | - | - |
| 1777719717 | 9.44° C | 94% | 1021.7 hPa | 0 mm | - | - | - |
| 1777719415 | 9.44° C | 94% | 1021.6 hPa | 0 mm | - | - | - |
* Rain latest hour (hover to see other rain measurements)
** Current wind speed in m/s (hover to see current wind gust speed)